createdAt,value
2023-04-22T00:00:59.926Z,11.40
2023-04-22T00:03:28.911Z,11.40
2023-04-22T00:05:57.682Z,11.40
2023-04-22T00:08:26.352Z,11.40
2023-04-22T00:10:56.738Z,11.30
2023-04-22T00:13:25.028Z,11.30
2023-04-22T00:15:53.378Z,11.20
2023-04-22T00:18:21.929Z,11.20
2023-04-22T00:20:50.263Z,11.20
2023-04-22T00:23:19.175Z,11.20
2023-04-22T00:25:47.480Z,11.10
2023-04-22T00:28:17.215Z,11.10
2023-04-22T00:30:45.503Z,11.00
2023-04-22T00:33:13.838Z,11.00
2023-04-22T00:35:42.160Z,11.00
2023-04-22T00:38:10.574Z,10.90
2023-04-22T00:40:38.938Z,10.90
2023-04-22T00:43:07.191Z,10.90
2023-04-22T00:45:38.098Z,10.90
2023-04-22T00:48:06.573Z,10.80
2023-04-22T00:50:35.034Z,10.80
2023-04-22T00:53:03.401Z,10.70
2023-04-22T00:55:31.675Z,10.60
2023-04-22T00:58:00.211Z,10.60
2023-04-22T01:00:29.337Z,10.50
2023-04-22T01:02:59.276Z,10.40
2023-04-22T01:05:27.921Z,10.40
2023-04-22T01:07:56.234Z,10.40
2023-04-22T01:10:24.672Z,10.30
2023-04-22T01:12:52.956Z,10.30
2023-04-22T01:15:21.738Z,10.20
2023-04-22T01:17:50.090Z,10.20
2023-04-22T01:20:19.965Z,10.20
2023-04-22T01:22:48.284Z,10.10
2023-04-22T01:25:18.000Z,10.10
2023-04-22T01:27:46.512Z,10.10
2023-04-22T01:30:15.491Z,10.00
2023-04-22T01:32:43.870Z,10.00
2023-04-22T01:35:12.334Z,9.90
2023-04-22T01:37:40.683Z,9.90
2023-04-22T01:40:10.821Z,9.90
2023-04-22T01:42:40.621Z,9.90
2023-04-22T01:45:10.323Z,9.90
2023-04-22T01:47:38.602Z,9.80
2023-04-22T01:50:08.322Z,9.80
2023-04-22T01:52:36.631Z,9.70
2023-04-22T01:55:05.751Z,9.70
2023-04-22T01:57:34.112Z,9.70
2023-04-22T02:00:04.685Z,9.60
2023-04-22T02:02:33.069Z,9.60
2023-04-22T02:05:01.418Z,9.60
2023-04-22T02:07:29.796Z,9.50
2023-04-22T02:09:58.097Z,9.50
2023-04-22T02:12:26.354Z,9.50
2023-04-22T02:14:54.645Z,9.40
2023-04-22T02:17:24.350Z,9.40
2023-04-22T02:19:52.739Z,9.40
2023-04-22T02:22:21.214Z,9.40
2023-04-22T02:24:49.689Z,9.30
2023-04-22T02:27:18.009Z,9.30
2023-04-22T02:29:46.336Z,9.30
2023-04-22T02:32:15.349Z,9.30
2023-04-22T02:34:45.030Z,9.30
2023-04-22T02:37:13.320Z,9.20
2023-04-22T02:39:41.854Z,9.20
2023-04-22T02:42:10.378Z,9.20
2023-04-22T02:44:38.656Z,9.20
2023-04-22T02:47:08.191Z,9.20
2023-04-22T02:49:36.604Z,9.20
2023-04-22T02:52:06.507Z,9.20
2023-04-22T02:54:34.807Z,9.20
2023-04-22T02:57:03.132Z,9.20
2023-04-22T02:59:32.307Z,9.20
2023-04-22T03:02:00.606Z,9.20
2023-04-22T03:04:29.108Z,9.20
2023-04-22T03:06:57.567Z,9.20
2023-04-22T03:09:27.277Z,9.20
2023-04-22T03:11:56.397Z,9.20
2023-04-22T03:14:24.737Z,9.20
2023-04-22T03:16:53.122Z,9.20
2023-04-22T03:19:21.509Z,9.10
2023-04-22T03:21:49.758Z,9.10
2023-04-22T03:24:18.736Z,9.10
2023-04-22T03:26:48.400Z,9.10
2023-04-22T03:29:16.629Z,9.10
2023-04-22T03:31:44.948Z,9.10
2023-04-22T03:34:13.325Z,9.00
2023-04-22T03:36:41.628Z,9.00
2023-04-22T03:39:09.874Z,9.00
2023-04-22T03:41:38.129Z,9.00
2023-04-22T03:44:07.801Z,8.90
2023-04-22T03:46:36.164Z,8.90
2023-04-22T03:49:05.012Z,8.90
2023-04-22T03:51:33.834Z,8.90
2023-04-22T03:54:02.206Z,8.90
2023-04-22T03:56:30.456Z,8.80
2023-04-22T03:58:58.806Z,8.80
2023-04-22T04:01:28.642Z,8.80
2023-04-22T04:03:57.001Z,8.80
2023-04-22T04:06:25.538Z,8.80
2023-04-22T04:08:53.836Z,8.70
2023-04-22T04:11:22.152Z,8.80
2023-04-22T04:13:50.614Z,8.80
2023-04-22T04:16:19.048Z,8.80
2023-04-22T04:18:50.999Z,8.80
2023-04-22T04:21:19.293Z,8.80
2023-04-22T04:23:48.894Z,8.80
2023-04-22T04:26:18.131Z,8.80
2023-04-22T04:28:47.173Z,8.80
2023-04-22T04:31:15.587Z,8.80
2023-04-22T04:33:44.060Z,8.80
2023-04-22T04:36:13.805Z,8.80
2023-04-22T04:38:42.125Z,8.80
2023-04-22T04:41:10.801Z,8.90
2023-04-22T04:43:40.689Z,8.90
2023-04-22T04:46:09.384Z,8.90
2023-04-22T04:48:37.714Z,8.90
2023-04-22T04:51:06.431Z,8.90
2023-04-22T04:53:36.438Z,9.00
2023-04-22T04:56:04.960Z,9.00
2023-04-22T04:58:33.244Z,9.00
2023-04-22T05:01:01.573Z,9.10
2023-04-22T05:03:30.069Z,9.10
2023-04-22T05:05:58.487Z,9.20
2023-04-22T05:08:26.859Z,9.20
2023-04-22T05:10:56.848Z,9.20
2023-04-22T05:13:26.386Z,9.30
2023-04-22T05:15:54.757Z,9.30
2023-04-22T05:18:23.283Z,9.40
2023-04-22T05:20:51.552Z,9.40
2023-04-22T05:23:19.964Z,9.50
2023-04-22T05:25:48.190Z,9.50
2023-04-22T05:28:17.895Z,9.60
2023-04-22T05:30:46.323Z,9.60
2023-04-22T05:33:14.774Z,9.70
2023-04-22T05:35:43.071Z,9.70
2023-04-22T05:38:11.404Z,9.80
2023-04-22T05:40:40.495Z,9.90
2023-04-22T05:43:09.432Z,10.00
2023-04-22T05:45:39.163Z,10.00
2023-04-22T05:48:07.706Z,10.10
2023-04-22T05:50:36.013Z,10.20
2023-04-22T05:53:04.268Z,10.30
2023-04-22T05:55:32.749Z,10.30
2023-04-22T05:58:01.116Z,10.40
2023-04-22T06:00:29.422Z,10.40
2023-04-22T06:02:59.264Z,10.50
2023-04-22T06:05:27.773Z,10.60
2023-04-22T06:07:56.188Z,10.70
2023-04-22T06:10:24.786Z,10.70
2023-04-22T06:12:53.090Z,10.80
2023-04-22T06:15:21.427Z,10.90
2023-04-22T06:17:50.099Z,11.00
2023-04-22T06:20:19.878Z,11.00
2023-04-22T06:22:48.228Z,11.10
2023-04-22T06:25:16.681Z,11.20
2023-04-22T06:27:45.013Z,11.30
2023-04-22T06:30:13.947Z,11.50
2023-04-22T06:32:42.201Z,11.60
2023-04-22T06:35:11.158Z,11.70
2023-04-22T06:37:41.033Z,11.80
2023-04-22T06:40:10.982Z,11.90
2023-04-22T06:42:39.297Z,12.00
2023-04-22T06:45:09.555Z,12.10
2023-04-22T06:47:37.995Z,12.20
2023-04-22T06:50:08.074Z,12.40
2023-04-22T06:52:36.432Z,12.50
2023-04-22T06:55:06.894Z,12.50
2023-04-22T06:57:35.169Z,12.60
2023-04-22T07:00:04.252Z,12.70
2023-04-22T07:02:32.620Z,12.80
2023-04-22T07:05:00.941Z,12.90
2023-04-22T07:07:29.309Z,13.00
2023-04-22T07:09:57.648Z,13.10
2023-04-22T07:12:27.241Z,13.30
2023-04-22T07:14:56.152Z,13.40
2023-04-22T07:17:24.484Z,13.50
2023-04-22T07:19:53.411Z,13.60
2023-04-22T07:22:21.861Z,13.80
2023-04-22T07:24:50.276Z,13.90
2023-04-22T07:27:18.604Z,14.00
2023-04-22T07:29:48.411Z,14.20
2023-04-22T07:32:16.876Z,14.30
2023-04-22T07:34:45.141Z,14.40
2023-04-22T07:37:13.507Z,14.50
2023-04-22T07:39:42.283Z,14.70
2023-04-22T07:42:10.723Z,14.80
2023-04-22T07:44:39.651Z,14.90
2023-04-22T07:47:09.406Z,15.00
2023-04-22T07:49:37.983Z,15.20
2023-04-22T07:52:06.501Z,15.30
2023-04-22T07:54:34.790Z,15.40
2023-04-22T07:57:03.261Z,15.60
2023-04-22T07:59:31.606Z,15.70
2023-04-22T08:01:59.946Z,15.80
2023-04-22T08:04:29.793Z,15.90
2023-04-22T08:06:58.234Z,16.00
2023-04-22T08:09:26.570Z,16.20
2023-04-22T08:11:54.936Z,16.30
2023-04-22T08:14:23.217Z,16.40
2023-04-22T08:16:52.803Z,16.50
2023-04-22T08:19:21.203Z,16.60
2023-04-22T08:21:51.722Z,16.80
2023-04-22T08:24:20.029Z,16.90
2023-04-22T08:26:48.360Z,17.00
2023-04-22T08:29:16.608Z,17.10
2023-04-22T08:31:44.944Z,17.20
2023-04-22T08:34:13.296Z,17.30
2023-04-22T08:36:41.638Z,17.40
2023-04-22T08:39:11.790Z,17.50
2023-04-22T08:41:40.776Z,17.60
2023-04-22T08:44:09.722Z,17.70
2023-04-22T08:46:38.063Z,17.80
2023-04-22T08:49:06.335Z,17.90
2023-04-22T08:51:34.613Z,17.90
2023-04-22T08:54:02.864Z,18.00
2023-04-22T08:56:32.591Z,18.10
2023-04-22T08:59:00.848Z,18.20
2023-04-22T09:01:29.248Z,18.30
2023-04-22T09:03:57.896Z,18.40
2023-04-22T09:06:26.186Z,18.50
2023-04-22T09:08:55.153Z,18.60
2023-04-22T09:11:23.388Z,18.70
2023-04-22T09:13:53.097Z,18.80
2023-04-22T09:16:21.490Z,18.90
2023-04-22T09:18:49.786Z,18.90
2023-04-22T09:21:18.083Z,19.00
2023-04-22T09:23:50.853Z,19.10
2023-04-22T09:26:21.773Z,19.20
2023-04-22T09:28:52.817Z,19.30
2023-04-22T09:31:22.028Z,19.40
2023-04-22T09:33:51.923Z,19.50
2023-04-22T09:36:24.219Z,19.50
2023-04-22T09:38:56.374Z,19.60
2023-04-22T09:41:30.882Z,19.70
2023-04-22T09:44:01.881Z,19.80
2023-04-22T09:46:31.167Z,19.80
2023-04-22T09:49:00.248Z,19.90
2023-04-22T09:51:28.732Z,20.00
2023-04-22T09:54:01.528Z,20.10
2023-04-22T09:56:48.455Z,20.20
2023-04-22T09:59:22.882Z,20.30
2023-04-22T10:01:53.510Z,20.40
2023-04-22T10:04:23.451Z,20.50
2023-04-22T10:06:51.834Z,20.50
2023-04-22T10:09:21.405Z,20.50
2023-04-22T10:11:49.765Z,20.60
2023-04-22T10:14:19.463Z,20.60
2023-04-22T10:16:48.483Z,20.80
2023-04-22T10:19:19.095Z,20.90
2023-04-22T10:21:48.021Z,21.00
2023-04-22T10:24:17.956Z,21.00
2023-04-22T10:26:50.828Z,21.10
2023-04-22T10:29:21.778Z,21.20
2023-04-22T10:31:55.530Z,21.20
2023-04-22T10:34:23.766Z,21.30
2023-04-22T10:37:00.015Z,21.40
2023-04-22T10:39:29.469Z,21.40
2023-04-22T10:42:13.234Z,21.50
2023-04-22T10:44:50.882Z,21.60
2023-04-22T10:47:29.803Z,21.70
2023-04-22T10:50:24.058Z,21.80
2023-04-22T10:52:53.720Z,21.80
2023-04-22T10:55:22.481Z,21.90
2023-04-22T10:57:51.682Z,21.90
2023-04-22T11:00:52.992Z,22.00
2023-04-22T11:03:29.080Z,22.00
2023-04-22T11:06:17.357Z,22.10
2023-04-22T11:08:47.546Z,22.20
2023-04-22T11:11:15.980Z,22.20
2023-04-22T11:13:45.535Z,22.20
2023-04-22T11:16:15.259Z,22.20
2023-04-22T11:18:43.519Z,22.20
2023-04-22T11:21:11.733Z,22.20
2023-04-22T11:23:40.076Z,22.30
2023-04-22T11:26:08.403Z,22.30
2023-04-22T11:28:37.340Z,22.40
2023-04-22T11:31:06.937Z,22.50
2023-04-22T11:33:36.917Z,22.50
2023-04-22T11:36:05.778Z,22.50
2023-04-22T11:38:34.185Z,22.50
2023-04-22T11:41:02.471Z,22.50
2023-04-22T11:43:31.062Z,22.60
2023-04-22T11:45:59.471Z,22.70
2023-04-22T11:48:27.886Z,22.70
2023-04-22T11:51:11.103Z,22.80
2023-04-22T11:53:41.198Z,22.90
2023-04-22T11:56:09.505Z,23.00
2023-04-22T11:58:40.140Z,23.00
2023-04-22T12:01:08.435Z,23.00
2023-04-22T12:03:36.928Z,23.00
2023-04-22T12:06:06.362Z,23.00
2023-04-22T12:08:37.008Z,23.00
2023-04-22T12:11:06.889Z,23.00
2023-04-22T12:13:42.384Z,23.00
2023-04-22T12:16:13.083Z,23.10
2023-04-22T12:18:42.649Z,23.10
2023-04-22T12:21:11.796Z,23.20
2023-04-22T12:23:44.814Z,23.30
2023-04-22T12:26:13.356Z,23.30
2023-04-22T12:28:42.061Z,23.30
2023-04-22T12:31:10.562Z,23.30
2023-04-22T12:33:39.380Z,23.40
2023-04-22T12:36:08.132Z,23.50
2023-04-22T12:38:36.532Z,23.60
2023-04-22T12:41:06.850Z,23.70
2023-04-22T12:43:36.731Z,23.80
2023-04-22T12:46:05.528Z,23.80
2023-04-22T12:48:33.913Z,23.90
2023-04-22T12:51:02.207Z,24.00
2023-04-22T12:53:30.730Z,24.00
2023-04-22T12:55:59.101Z,24.00
2023-04-22T12:58:28.867Z,24.00
2023-04-22T13:00:57.274Z,23.90
2023-04-22T13:03:25.762Z,24.00
2023-04-22T13:05:54.196Z,24.00
2023-04-22T13:08:22.551Z,24.10
2023-04-22T13:10:51.359Z,24.10
2023-04-22T13:13:19.751Z,24.20
2023-04-22T13:15:53.149Z,24.20
2023-04-22T13:18:22.805Z,24.20
2023-04-22T13:20:51.359Z,24.20
2023-04-22T13:23:21.854Z,24.20
2023-04-22T13:25:50.609Z,24.10
2023-04-22T13:28:18.901Z,24.10
2023-04-22T13:30:48.550Z,24.20
2023-04-22T13:33:16.831Z,24.20
2023-04-22T13:35:45.032Z,24.30
2023-04-22T13:38:13.328Z,24.30
2023-04-22T13:40:41.670Z,24.40
2023-04-22T13:43:10.176Z,24.40
2023-04-22T13:45:38.524Z,24.40
2023-04-22T13:48:08.333Z,24.40
2023-04-22T13:50:36.570Z,24.50
2023-04-22T13:53:05.011Z,24.50
2023-04-22T13:55:33.480Z,24.50
2023-04-22T13:58:01.905Z,24.40
2023-04-22T14:00:30.299Z,24.40
2023-04-22T14:02:58.779Z,24.50
2023-04-22T14:05:28.625Z,24.50
2023-04-22T14:07:57.349Z,24.50
2023-04-22T14:10:27.916Z,24.40
2023-04-22T14:12:56.933Z,24.50
2023-04-22T14:15:25.795Z,24.50
2023-04-22T14:17:54.585Z,24.50
2023-04-22T14:20:25.040Z,24.50
2023-04-22T14:22:54.773Z,24.50
2023-04-22T14:25:23.107Z,24.50
2023-04-22T14:27:51.350Z,24.50
2023-04-22T14:30:21.727Z,24.50
2023-04-22T14:32:50.386Z,24.60
2023-04-22T14:35:19.667Z,24.60
2023-04-22T14:37:47.990Z,24.60
2023-04-22T14:40:17.701Z,24.60
2023-04-22T14:42:46.187Z,24.60
2023-04-22T14:45:14.760Z,24.60
2023-04-22T14:47:43.120Z,24.60
2023-04-22T14:50:12.080Z,24.70
2023-04-22T14:52:40.352Z,24.70
2023-04-22T14:55:22.022Z,24.80
2023-04-22T14:57:56.640Z,24.90
2023-04-22T15:00:25.171Z,24.90
2023-04-22T15:02:54.032Z,24.80
2023-04-22T15:05:23.528Z,24.80
2023-04-22T15:07:51.951Z,24.80
2023-04-22T15:10:20.287Z,24.80
2023-04-22T15:12:48.642Z,24.70
2023-04-22T15:15:18.417Z,24.70
2023-04-22T15:17:46.931Z,24.60
2023-04-22T15:20:15.388Z,24.60
2023-04-22T15:22:45.297Z,24.60
2023-04-22T15:25:14.036Z,24.60
2023-04-22T15:27:42.660Z,24.60
2023-04-22T15:30:11.853Z,24.60
2023-04-22T15:32:41.466Z,24.40
2023-04-22T15:35:10.030Z,24.40
2023-04-22T15:37:38.393Z,24.40
2023-04-22T15:40:09.991Z,24.30
2023-04-22T15:42:38.356Z,24.30
2023-04-22T15:45:08.230Z,24.30
2023-04-22T15:47:37.098Z,24.20
2023-04-22T15:50:09.775Z,24.10
2023-04-22T15:52:38.603Z,24.10
2023-04-22T15:55:07.865Z,24.00
2023-04-22T15:57:36.388Z,23.90
2023-04-22T16:00:14.150Z,23.90
2023-04-22T16:02:43.120Z,23.80
2023-04-22T16:05:14.038Z,23.80
2023-04-22T16:07:42.423Z,23.80
2023-04-22T16:10:12.018Z,23.70
2023-04-22T16:12:40.352Z,23.70
2023-04-22T16:15:11.128Z,23.70
2023-04-22T16:17:39.546Z,23.60
2023-04-22T16:20:10.397Z,23.60
2023-04-22T16:22:40.060Z,23.50
2023-04-22T16:25:10.631Z,23.50
2023-04-22T16:27:38.947Z,23.40
2023-04-22T16:30:08.873Z,23.30
2023-04-22T16:32:37.174Z,23.20
2023-04-22T16:35:06.640Z,23.10
2023-04-22T16:37:35.156Z,23.00
2023-04-22T16:40:06.287Z,22.80
2023-04-22T16:42:34.579Z,22.80
2023-04-22T16:45:03.477Z,22.70
2023-04-22T16:47:31.836Z,22.70
2023-04-22T16:50:00.115Z,22.60
2023-04-22T16:52:28.624Z,22.60
2023-04-22T16:54:57.089Z,22.50
2023-04-22T16:57:26.856Z,22.40
2023-04-22T16:59:55.101Z,22.30
2023-04-22T17:02:23.483Z,22.20
2023-04-22T17:04:51.907Z,22.10
2023-04-22T17:07:20.123Z,22.00
2023-04-22T17:09:48.932Z,21.90
2023-04-22T17:12:17.232Z,21.80
2023-04-22T17:14:46.882Z,21.70
2023-04-22T17:17:15.134Z,21.60
2023-04-22T17:19:43.973Z,21.40
2023-04-22T17:22:12.599Z,21.30
2023-04-22T17:24:40.959Z,21.20
2023-04-22T17:27:09.232Z,21.10
2023-04-22T17:29:37.579Z,20.90
2023-04-22T17:32:07.871Z,20.80
2023-04-22T17:34:36.250Z,20.60
2023-04-22T17:37:04.653Z,20.50
2023-04-22T17:39:33.060Z,20.40
2023-04-22T17:42:01.918Z,20.20
2023-04-22T17:44:31.705Z,20.10
2023-04-22T17:47:00.064Z,20.00
2023-04-22T17:49:29.757Z,19.90
2023-04-22T17:51:58.030Z,19.80
2023-04-22T17:54:26.577Z,19.60
2023-04-22T17:56:54.896Z,19.50
2023-04-22T17:59:23.156Z,19.40
2023-04-22T18:01:51.489Z,19.20
2023-04-22T18:04:19.802Z,19.10
2023-04-22T18:06:49.491Z,19.00
2023-04-22T18:09:17.733Z,18.90
2023-04-22T18:11:46.162Z,18.80
2023-04-22T18:14:14.417Z,18.60
2023-04-22T18:16:42.946Z,18.50
2023-04-22T18:19:11.586Z,18.40
2023-04-22T18:21:46.592Z,18.30
2023-04-22T18:24:22.680Z,18.20
2023-04-22T18:26:50.973Z,18.00
2023-04-22T18:29:19.269Z,17.90
2023-04-22T18:31:47.639Z,17.80
2023-04-22T18:34:16.262Z,17.70
2023-04-22T18:36:44.489Z,17.60
2023-04-22T18:39:12.707Z,17.50
2023-04-22T18:41:43.157Z,17.40
2023-04-22T18:44:11.437Z,17.30
2023-04-22T18:46:39.797Z,17.20
2023-04-22T18:49:08.081Z,17.10
2023-04-22T18:51:36.358Z,17.00
2023-04-22T18:54:04.818Z,17.00
2023-04-22T18:56:33.406Z,16.90
2023-04-22T18:59:03.051Z,16.80
2023-04-22T19:01:33.713Z,16.70
2023-04-22T19:04:02.558Z,16.60
2023-04-22T19:06:30.907Z,16.50
